sensor_id;sensor_type;location;lat;lon;timestamp;P1;durP1;ratioP1;P2;durP2;ratioP2
36105;SDS011;22159;55.736;38.048;2022-11-13T00:00:56;2.70;;;1.00;;
36105;SDS011;22159;55.736;38.048;2022-11-13T00:03:22;2.78;;;1.02;;
36105;SDS011;22159;55.736;38.048;2022-11-13T00:05:56;2.30;;;0.90;;
36105;SDS011;22159;55.736;38.048;2022-11-13T00:08:23;2.08;;;0.90;;
36105;SDS011;22159;55.736;38.048;2022-11-13T00:10:49;2.05;;;0.75;;
36105;SDS011;22159;55.736;38.048;2022-11-13T00:13:15;2.75;;;0.80;;
36105;SDS011;22159;55.736;38.048;2022-11-13T00:15:41;3.05;;;0.82;;
36105;SDS011;22159;55.736;38.048;2022-11-13T00:18:07;2.90;;;0.90;;
36105;SDS011;22159;55.736;38.048;2022-11-13T00:20:34;3.38;;;0.90;;
36105;SDS011;22159;55.736;38.048;2022-11-13T00:23:00;2.92;;;1.05;;
36105;SDS011;22159;55.736;38.048;2022-11-13T00:25:26;2.95;;;0.80;;
36105;SDS011;22159;55.736;38.048;2022-11-13T00:27:52;2.47;;;0.90;;
36105;SDS011;22159;55.736;38.048;2022-11-13T00:30:18;2.25;;;1.00;;
36105;SDS011;22159;55.736;38.048;2022-11-13T00:32:44;1.30;;;0.70;;
36105;SDS011;22159;55.736;38.048;2022-11-13T00:35:10;2.28;;;0.65;;
36105;SDS011;22159;55.736;38.048;2022-11-13T00:37:36;2.80;;;0.75;;
36105;SDS011;22159;55.736;38.048;2022-11-13T00:40:02;2.45;;;0.75;;
36105;SDS011;22159;55.736;38.048;2022-11-13T00:42:28;1.98;;;0.68;;
36105;SDS011;22159;55.736;38.048;2022-11-13T00:44:54;1.83;;;0.65;;
36105;SDS011;22159;55.736;38.048;2022-11-13T00:47:20;3.22;;;0.70;;
36105;SDS011;22159;55.736;38.048;2022-11-13T00:49:46;1.52;;;0.60;;
36105;SDS011;22159;55.736;38.048;2022-11-13T00:52:12;2.72;;;0.70;;
36105;SDS011;22159;55.736;38.048;2022-11-13T00:54:38;1.92;;;0.95;;
36105;SDS011;22159;55.736;38.048;2022-11-13T00:57:04;1.98;;;0.80;;
36105;SDS011;22159;55.736;38.048;2022-11-13T00:59:30;1.92;;;0.77;;
36105;SDS011;22159;55.736;38.048;2022-11-13T01:01:56;1.90;;;0.57;;
36105;SDS011;22159;55.736;38.048;2022-11-13T01:04:22;1.25;;;0.50;;
36105;SDS011;22159;55.736;38.048;2022-11-13T01:06:48;2.08;;;0.77;;
36105;SDS011;22159;55.736;38.048;2022-11-13T01:09:14;1.92;;;0.65;;
36105;SDS011;22159;55.736;38.048;2022-11-13T01:11:40;1.70;;;0.40;;
36105;SDS011;22159;55.736;38.048;2022-11-13T01:14:07;1.33;;;0.57;;
36105;SDS011;22159;55.736;38.048;2022-11-13T01:16:34;1.42;;;0.63;;
36105;SDS011;22159;55.736;38.048;2022-11-13T01:19:00;1.27;;;0.45;;
36105;SDS011;22159;55.736;38.048;2022-11-13T01:21:26;1.90;;;0.60;;
36105;SDS011;22159;55.736;38.048;2022-11-13T01:23:53;1.05;;;0.40;;
36105;SDS011;22159;55.736;38.048;2022-11-13T01:26:21;1.13;;;0.40;;
36105;SDS011;22159;55.736;38.048;2022-11-13T01:28:48;1.67;;;0.40;;
36105;SDS011;22159;55.736;38.048;2022-11-13T01:31:15;1.42;;;0.38;;
36105;SDS011;22159;55.736;38.048;2022-11-13T01:33:42;1.80;;;0.55;;
36105;SDS011;22159;55.736;38.048;2022-11-13T01:36:10;1.42;;;0.40;;
36105;SDS011;22159;55.736;38.048;2022-11-13T01:38:36;2.10;;;0.68;;
36105;SDS011;22159;55.736;38.048;2022-11-13T01:41:03;1.95;;;0.60;;
36105;SDS011;22159;55.736;38.048;2022-11-13T01:43:33;0.98;;;0.40;;
36105;SDS011;22159;55.736;38.048;2022-11-13T01:48:31;1.65;;;0.60;;
36105;SDS011;22159;55.736;38.048;2022-11-13T01:50:59;1.75;;;0.63;;
36105;SDS011;22159;55.736;38.048;2022-11-13T01:53:25;1.25;;;0.45;;
36105;SDS011;22159;55.736;38.048;2022-11-13T01:55:52;1.42;;;0.40;;
36105;SDS011;22159;55.736;38.048;2022-11-13T01:58:18;1.48;;;0.40;;
36105;SDS011;22159;55.736;38.048;2022-11-13T02:00:45;1.10;;;0.32;;
36105;SDS011;22159;55.736;38.048;2022-11-13T02:03:11;1.38;;;0.47;;
36105;SDS011;22159;55.736;38.048;2022-11-13T02:05:37;0.55;;;0.28;;
36105;SDS011;22159;55.736;38.048;2022-11-13T02:08:03;1.30;;;0.32;;
36105;SDS011;22159;55.736;38.048;2022-11-13T02:10:29;1.05;;;0.40;;
36105;SDS011;22159;55.736;38.048;2022-11-13T02:12:55;1.10;;;0.40;;
36105;SDS011;22159;55.736;38.048;2022-11-13T02:15:22;1.33;;;0.50;;
36105;SDS011;22159;55.736;38.048;2022-11-13T02:17:55;0.40;;;0.20;;
36105;SDS011;22159;55.736;38.048;2022-11-13T02:25:20;0.52;;;0.25;;
36105;SDS011;22159;55.736;38.048;2022-11-13T02:27:47;1.85;;;0.40;;
36105;SDS011;22159;55.736;38.048;2022-11-13T02:32:47;0.63;;;0.30;;
36105;SDS011;22159;55.736;38.048;2022-11-13T02:35:14;0.52;;;0.22;;
36105;SDS011;22159;55.736;38.048;2022-11-13T02:37:40;0.98;;;0.35;;
36105;SDS011;22159;55.736;38.048;2022-11-13T02:40:07;0.60;;;0.30;;
36105;SDS011;22159;55.736;38.048;2022-11-13T02:42:33;0.50;;;0.17;;
36105;SDS011;22159;55.736;38.048;2022-11-13T02:44:59;1.02;;;0.32;;
36105;SDS011;22159;55.736;38.048;2022-11-13T02:47:25;1.10;;;0.20;;
36105;SDS011;22159;55.736;38.048;2022-11-13T02:49:51;1.20;;;0.20;;
36105;SDS011;22159;55.736;38.048;2022-11-13T02:52:17;0.77;;;0.20;;
36105;SDS011;22159;55.736;38.048;2022-11-13T02:54:43;0.63;;;0.30;;
36105;SDS011;22159;55.736;38.048;2022-11-13T02:57:09;0.80;;;0.32;;
36105;SDS011;22159;55.736;38.048;2022-11-13T02:59:35;0.80;;;0.22;;
36105;SDS011;22159;55.736;38.048;2022-11-13T03:02:01;1.23;;;0.32;;
36105;SDS011;22159;55.736;38.048;2022-11-13T03:04:27;0.43;;;0.20;;
36105;SDS011;22159;55.736;38.048;2022-11-13T03:06:53;0.60;;;0.17;;
36105;SDS011;22159;55.736;38.048;2022-11-13T03:09:20;1.42;;;0.17;;
36105;SDS011;22159;55.736;38.048;2022-11-13T03:11:46;0.43;;;0.13;;
36105;SDS011;22159;55.736;38.048;2022-11-13T03:14:12;0.38;;;0.10;;
36105;SDS011;22159;55.736;38.048;2022-11-13T03:16:38;2.15;;;0.30;;
36105;SDS011;22159;55.736;38.048;2022-11-13T03:19:04;0.28;;;0.20;;
36105;SDS011;22159;55.736;38.048;2022-11-13T03:21:30;0.60;;;0.28;;
36105;SDS011;22159;55.736;38.048;2022-11-13T03:23:56;0.75;;;0.30;;
36105;SDS011;22159;55.736;38.048;2022-11-13T03:26:22;0.40;;;0.20;;
36105;SDS011;22159;55.736;38.048;2022-11-13T03:28:48;2.25;;;0.30;;
36105;SDS011;22159;55.736;38.048;2022-11-13T03:31:14;0.70;;;0.20;;
36105;SDS011;22159;55.736;38.048;2022-11-13T03:33:41;0.35;;;0.10;;
36105;SDS011;22159;55.736;38.048;2022-11-13T03:36:07;0.60;;;0.13;;
36105;SDS011;22159;55.736;38.048;2022-11-13T03:38:33;0.70;;;0.30;;
36105;SDS011;22159;55.736;38.048;2022-11-13T03:40:59;0.30;;;0.10;;
36105;SDS011;22159;55.736;38.048;2022-11-13T03:43:25;0.90;;;0.30;;
36105;SDS011;22159;55.736;38.048;2022-11-13T03:45:51;0.40;;;0.10;;
36105;SDS011;22159;55.736;38.048;2022-11-13T03:48:17;0.28;;;0.10;;
36105;SDS011;22159;55.736;38.048;2022-11-13T03:50:44;0.52;;;0.20;;
36105;SDS011;22159;55.736;38.048;2022-11-13T03:53:11;0.43;;;0.10;;
36105;SDS011;22159;55.736;38.048;2022-11-13T03:55:37;0.35;;;0.10;;
36105;SDS011;22159;55.736;38.048;2022-11-13T03:58:03;0.70;;;0.13;;
36105;SDS011;22159;55.736;38.048;2022-11-13T04:00:30;1.10;;;0.20;;
36105;SDS011;22159;55.736;38.048;2022-11-13T04:02:56;0.35;;;0.10;;
36105;SDS011;22159;55.736;38.048;2022-11-13T04:05:22;0.47;;;0.10;;
36105;SDS011;22159;55.736;38.048;2022-11-13T04:07:48;0.70;;;0.17;;
36105;SDS011;22159;55.736;38.048;2022-11-13T04:10:15;0.73;;;0.13;;
36105;SDS011;22159;55.736;38.048;2022-11-13T04:12:41;0.30;;;0.10;;
36105;SDS011;22159;55.736;38.048;2022-11-13T04:15:07;1.10;;;0.38;;
36105;SDS011;22159;55.736;38.048;2022-11-13T04:17:33;0.17;;;0.10;;
36105;SDS011;22159;55.736;38.048;2022-11-13T04:19:59;1.65;;;0.30;;
36105;SDS011;22159;55.736;38.048;2022-11-13T04:22:25;0.25;;;0.05;;
36105;SDS011;22159;55.736;38.048;2022-11-13T04:24:51;0.35;;;0.17;;
36105;SDS011;22159;55.736;38.048;2022-11-13T04:27:17;0.22;;;0.00;;
36105;SDS011;22159;55.736;38.048;2022-11-13T04:29:43;0.35;;;0.10;;
36105;SDS011;22159;55.736;38.048;2022-11-13T04:32:09;0.63;;;0.20;;
36105;SDS011;22159;55.736;38.048;2022-11-13T04:34:35;0.63;;;0.10;;
36105;SDS011;22159;55.736;38.048;2022-11-13T04:37:01;0.20;;;0.03;;
36105;SDS011;22159;55.736;38.048;2022-11-13T04:39:27;0.20;;;0.10;;
36105;SDS011;22159;55.736;38.048;2022-11-13T04:41:53;0.30;;;0.10;;
36105;SDS011;22159;55.736;38.048;2022-11-13T04:44:38;0.60;;;0.20;;
36105;SDS011;22159;55.736;38.048;2022-11-13T04:47:04;0.85;;;0.10;;
36105;SDS011;22159;55.736;38.048;2022-11-13T04:49:30;0.10;;;0.10;;
36105;SDS011;22159;55.736;38.048;2022-11-13T04:51:56;0.20;;;0.08;;
36105;SDS011;22159;55.736;38.048;2022-11-13T04:54:22;0.50;;;0.10;;
36105;SDS011;22159;55.736;38.048;2022-11-13T04:56:48;0.25;;;0.10;;
36105;SDS011;22159;55.736;38.048;2022-11-13T04:59:14;0.10;;;0.03;;
36105;SDS011;22159;55.736;38.048;2022-11-13T05:01:41;0.73;;;0.20;;
36105;SDS011;22159;55.736;38.048;2022-11-13T05:04:09;3.20;;;0.20;;
36105;SDS011;22159;55.736;38.048;2022-11-13T05:06:35;0.10;;;0.00;;
36105;SDS011;22159;55.736;38.048;2022-11-13T05:09:01;0.52;;;0.08;;
36105;SDS011;22159;55.736;38.048;2022-11-13T05:11:27;0.30;;;0.10;;
36105;SDS011;22159;55.736;38.048;2022-11-13T05:13:53;0.75;;;0.13;;
36105;SDS011;22159;55.736;38.048;2022-11-13T05:16:19;0.13;;;0.00;;
36105;SDS011;22159;55.736;38.048;2022-11-13T05:18:45;1.40;;;0.10;;
36105;SDS011;22159;55.736;38.048;2022-11-13T05:21:11;0.60;;;0.10;;
36105;SDS011;22159;55.736;38.048;2022-11-13T05:23:37;0.80;;;0.10;;
36105;SDS011;22159;55.736;38.048;2022-11-13T05:26:08;0.60;;;0.20;;
36105;SDS011;22159;55.736;38.048;2022-11-13T05:28:35;0.10;;;0.00;;
36105;SDS011;22159;55.736;38.048;2022-11-13T05:31:08;0.32;;;0.10;;
36105;SDS011;22159;55.736;38.048;2022-11-13T05:33:34;1.38;;;0.10;;
36105;SDS011;22159;55.736;38.048;2022-11-13T05:36:01;0.95;;;0.10;;
36105;SDS011;22159;55.736;38.048;2022-11-13T05:38:27;0.50;;;0.10;;
36105;SDS011;22159;55.736;38.048;2022-11-13T05:40:53;0.20;;;0.20;;
36105;SDS011;22159;55.736;38.048;2022-11-13T05:43:19;0.22;;;0.10;;
36105;SDS011;22159;55.736;38.048;2022-11-13T05:45:45;1.45;;;0.20;;
36105;SDS011;22159;55.736;38.048;2022-11-13T05:48:11;0.47;;;0.20;;
36105;SDS011;22159;55.736;38.048;2022-11-13T05:50:37;0.17;;;0.05;;
36105;SDS011;22159;55.736;38.048;2022-11-13T05:53:03;0.90;;;0.25;;
36105;SDS011;22159;55.736;38.048;2022-11-13T05:55:29;0.63;;;0.10;;
36105;SDS011;22159;55.736;38.048;2022-11-13T05:57:57;0.57;;;0.10;;
36105;SDS011;22159;55.736;38.048;2022-11-13T06:00:23;0.45;;;0.08;;
36105;SDS011;22159;55.736;38.048;2022-11-13T06:02:49;0.70;;;0.20;;
36105;SDS011;22159;55.736;38.048;2022-11-13T06:05:15;0.10;;;0.00;;
36105;SDS011;22159;55.736;38.048;2022-11-13T06:07:41;1.55;;;0.15;;
36105;SDS011;22159;55.736;38.048;2022-11-13T06:10:07;1.60;;;0.10;;
36105;SDS011;22159;55.736;38.048;2022-11-13T06:12:33;0.82;;;0.13;;
36105;SDS011;22159;55.736;38.048;2022-11-13T06:14:59;0.20;;;0.10;;
36105;SDS011;22159;55.736;38.048;2022-11-13T06:17:25;0.30;;;0.10;;
36105;SDS011;22159;55.736;38.048;2022-11-13T06:19:51;0.68;;;0.00;;
36105;SDS011;22159;55.736;38.048;2022-11-13T06:22:17;0.17;;;0.10;;
36105;SDS011;22159;55.736;38.048;2022-11-13T06:24:43;0.32;;;0.22;;
36105;SDS011;22159;55.736;38.048;2022-11-13T06:27:09;0.88;;;0.17;;
36105;SDS011;22159;55.736;38.048;2022-11-13T06:29:35;1.13;;;0.10;;
36105;SDS011;22159;55.736;38.048;2022-11-13T06:32:01;2.53;;;0.20;;
36105;SDS011;22159;55.736;38.048;2022-11-13T06:34:27;2.47;;;0.20;;
36105;SDS011;22159;55.736;38.048;2022-11-13T06:36:53;0.30;;;0.10;;
36105;SDS011;22159;55.736;38.048;2022-11-13T06:39:19;0.45;;;0.13;;
36105;SDS011;22159;55.736;38.048;2022-11-13T06:41:45;0.68;;;0.10;;
36105;SDS011;22159;55.736;38.048;2022-11-13T06:44:11;1.02;;;0.10;;
36105;SDS011;22159;55.736;38.048;2022-11-13T06:46:37;0.65;;;0.20;;
36105;SDS011;22159;55.736;38.048;2022-11-13T06:49:03;0.50;;;0.08;;
36105;SDS011;22159;55.736;38.048;2022-11-13T06:51:29;0.32;;;0.10;;
36105;SDS011;22159;55.736;38.048;2022-11-13T06:53:56;1.55;;;0.10;;
36105;SDS011;22159;55.736;38.048;2022-11-13T06:56:22;1.55;;;0.10;;
36105;SDS011;22159;55.736;38.048;2022-11-13T06:58:49;0.57;;;0.08;;
36105;SDS011;22159;55.736;38.048;2022-11-13T07:01:18;0.45;;;0.10;;
36105;SDS011;22159;55.736;38.048;2022-11-13T07:03:45;0.10;;;0.00;;
36105;SDS011;22159;55.736;38.048;2022-11-13T07:06:12;0.57;;;0.10;;
36105;SDS011;22159;55.736;38.048;2022-11-13T07:08:38;0.32;;;0.10;;
36105;SDS011;22159;55.736;38.048;2022-11-13T07:11:05;0.10;;;0.00;;
36105;SDS011;22159;55.736;38.048;2022-11-13T07:13:32;0.40;;;0.20;;
36105;SDS011;22159;55.736;38.048;2022-11-13T07:16:01;1.35;;;0.05;;
36105;SDS011;22159;55.736;38.048;2022-11-13T07:18:29;1.20;;;0.10;;
36105;SDS011;22159;55.736;38.048;2022-11-13T07:20:55;0.47;;;0.00;;
36105;SDS011;22159;55.736;38.048;2022-11-13T07:23:21;0.63;;;0.20;;
36105;SDS011;22159;55.736;38.048;2022-11-13T07:25:47;1.05;;;0.20;;
36105;SDS011;22159;55.736;38.048;2022-11-13T07:28:13;2.38;;;0.20;;
36105;SDS011;22159;55.736;38.048;2022-11-13T07:30:39;3.28;;;0.10;;
36105;SDS011;22159;55.736;38.048;2022-11-13T07:33:05;2.10;;;0.20;;
36105;SDS011;22159;55.736;38.048;2022-11-13T07:35:31;4.45;;;0.40;;
36105;SDS011;22159;55.736;38.048;2022-11-13T07:37:58;4.68;;;0.20;;
36105;SDS011;22159;55.736;38.048;2022-11-13T07:40:24;2.25;;;0.40;;
36105;SDS011;22159;55.736;38.048;2022-11-13T07:42:57;3.25;;;0.20;;
36105;SDS011;22159;55.736;38.048;2022-11-13T07:45:23;2.28;;;0.15;;
36105;SDS011;22159;55.736;38.048;2022-11-13T07:47:49;1.75;;;0.28;;
36105;SDS011;22159;55.736;38.048;2022-11-13T07:50:15;2.25;;;0.30;;
36105;SDS011;22159;55.736;38.048;2022-11-13T07:52:42;3.90;;;0.47;;
36105;SDS011;22159;55.736;38.048;2022-11-13T07:55:08;2.58;;;0.50;;
36105;SDS011;22159;55.736;38.048;2022-11-13T07:57:34;2.90;;;0.50;;
36105;SDS011;22159;55.736;38.048;2022-11-13T08:00:00;4.18;;;0.40;;
36105;SDS011;22159;55.736;38.048;2022-11-13T08:02:26;2.33;;;0.40;;
36105;SDS011;22159;55.736;38.048;2022-11-13T08:04:52;3.55;;;0.52;;
36105;SDS011;22159;55.736;38.048;2022-11-13T08:07:18;1.63;;;0.50;;
36105;SDS011;22159;55.736;38.048;2022-11-13T08:09:44;2.60;;;0.47;;
36105;SDS011;22159;55.736;38.048;2022-11-13T08:12:10;2.97;;;0.50;;
36105;SDS011;22159;55.736;38.048;2022-11-13T08:14:36;3.28;;;0.68;;
36105;SDS011;22159;55.736;38.048;2022-11-13T08:17:02;3.60;;;0.50;;
36105;SDS011;22159;55.736;38.048;2022-11-13T08:19:28;2.60;;;0.63;;
36105;SDS011;22159;55.736;38.048;2022-11-13T08:21:54;2.03;;;0.63;;
36105;SDS011;22159;55.736;38.048;2022-11-13T08:24:20;2.40;;;0.60;;
36105;SDS011;22159;55.736;38.048;2022-11-13T08:26:46;1.23;;;0.40;;
36105;SDS011;22159;55.736;38.048;2022-11-13T08:29:12;3.17;;;0.65;;
36105;SDS011;22159;55.736;38.048;2022-11-13T08:31:38;2.90;;;0.43;;
36105;SDS011;22159;55.736;38.048;2022-11-13T08:34:04;3.53;;;0.75;;
36105;SDS011;22159;55.736;38.048;2022-11-13T08:36:30;1.30;;;0.40;;
36105;SDS011;22159;55.736;38.048;2022-11-13T08:38:56;1.50;;;0.30;;
36105;SDS011;22159;55.736;38.048;2022-11-13T08:41:22;1.30;;;0.40;;
36105;SDS011;22159;55.736;38.048;2022-11-13T08:43:48;2.40;;;0.50;;
36105;SDS011;22159;55.736;38.048;2022-11-13T08:46:14;3.72;;;0.63;;
36105;SDS011;22159;55.736;38.048;2022-11-13T08:48:40;3.85;;;0.57;;
36105;SDS011;22159;55.736;38.048;2022-11-13T08:51:06;1.48;;;0.45;;
36105;SDS011;22159;55.736;38.048;2022-11-13T08:53:32;2.20;;;0.55;;
36105;SDS011;22159;55.736;38.048;2022-11-13T08:55:59;1.63;;;0.35;;
36105;SDS011;22159;55.736;38.048;2022-11-13T08:58:25;1.90;;;0.35;;
36105;SDS011;22159;55.736;38.048;2022-11-13T09:00:51;2.05;;;0.50;;
36105;SDS011;22159;55.736;38.048;2022-11-13T09:03:18;2.03;;;0.40;;
36105;SDS011;22159;55.736;38.048;2022-11-13T09:05:44;2.88;;;0.47;;
36105;SDS011;22159;55.736;38.048;2022-11-13T09:08:10;3.70;;;0.43;;
36105;SDS011;22159;55.736;38.048;2022-11-13T09:10:36;1.45;;;0.38;;
36105;SDS011;22159;55.736;38.048;2022-11-13T09:13:03;1.95;;;0.50;;
36105;SDS011;22159;55.736;38.048;2022-11-13T09:15:30;2.50;;;0.60;;
36105;SDS011;22159;55.736;38.048;2022-11-13T09:17:57;2.42;;;0.90;;
36105;SDS011;22159;55.736;38.048;2022-11-13T09:20:23;7.00;;;0.70;;
36105;SDS011;22159;55.736;38.048;2022-11-13T09:22:54;1.88;;;0.43;;
36105;SDS011;22159;55.736;38.048;2022-11-13T09:25:20;4.03;;;0.65;;
36105;SDS011;22159;55.736;38.048;2022-11-13T09:27:53;4.22;;;0.50;;
36105;SDS011;22159;55.736;38.048;2022-11-13T09:30:20;2.75;;;0.52;;
36105;SDS011;22159;55.736;38.048;2022-11-13T09:32:46;3.40;;;0.50;;
36105;SDS011;22159;55.736;38.048;2022-11-13T09:35:12;3.55;;;0.40;;
36105;SDS011;22159;55.736;38.048;2022-11-13T09:37:38;5.82;;;0.50;;
36105;SDS011;22159;55.736;38.048;2022-11-13T09:40:04;2.45;;;0.77;;
36105;SDS011;22159;55.736;38.048;2022-11-13T09:42:31;4.05;;;0.55;;
36105;SDS011;22159;55.736;38.048;2022-11-13T09:45:02;1.63;;;0.40;;
36105;SDS011;22159;55.736;38.048;2022-11-13T09:47:35;1.15;;;0.40;;
36105;SDS011;22159;55.736;38.048;2022-11-13T09:50:04;3.50;;;0.60;;
36105;SDS011;22159;55.736;38.048;2022-11-13T09:52:36;2.80;;;0.50;;
36105;SDS011;22159;55.736;38.048;2022-11-13T09:55:02;2.78;;;0.50;;
36105;SDS011;22159;55.736;38.048;2022-11-13T10:05:23;2.30;;;0.40;;
36105;SDS011;22159;55.736;38.048;2022-11-13T10:12:42;2.20;;;0.50;;
36105;SDS011;22159;55.736;38.048;2022-11-13T10:15:09;2.38;;;0.50;;
36105;SDS011;22159;55.736;38.048;2022-11-13T10:17:46;2.55;;;0.55;;
36105;SDS011;22159;55.736;38.048;2022-11-13T10:20:18;2.78;;;0.50;;
36105;SDS011;22159;55.736;38.048;2022-11-13T10:22:48;1.25;;;0.40;;
36105;SDS011;22159;55.736;38.048;2022-11-13T10:25:19;2.75;;;0.30;;
36105;SDS011;22159;55.736;38.048;2022-11-13T10:27:55;2.50;;;0.45;;
36105;SDS011;22159;55.736;38.048;2022-11-13T10:33:24;10.00;;;0.68;;
36105;SDS011;22159;55.736;38.048;2022-11-13T10:38:31;2.15;;;0.40;;
36105;SDS011;22159;55.736;38.048;2022-11-13T10:41:06;2.08;;;0.60;;
36105;SDS011;22159;55.736;38.048;2022-11-13T10:43:32;3.17;;;0.40;;
36105;SDS011;22159;55.736;38.048;2022-11-13T10:46:00;3.35;;;0.40;;
36105;SDS011;22159;55.736;38.048;2022-11-13T10:48:28;1.20;;;0.30;;
36105;SDS011;22159;55.736;38.048;2022-11-13T10:50:55;2.03;;;0.47;;
36105;SDS011;22159;55.736;38.048;2022-11-13T10:53:22;1.42;;;0.22;;
36105;SDS011;22159;55.736;38.048;2022-11-13T10:55:50;2.28;;;0.40;;
36105;SDS011;22159;55.736;38.048;2022-11-13T10:58:18;2.85;;;0.50;;
36105;SDS011;22159;55.736;38.048;2022-11-13T11:00:44;1.52;;;0.43;;
36105;SDS011;22159;55.736;38.048;2022-11-13T11:03:17;1.55;;;0.38;;
36105;SDS011;22159;55.736;38.048;2022-11-13T11:05:53;3.03;;;0.90;;
36105;SDS011;22159;55.736;38.048;2022-11-13T11:08:28;1.75;;;0.50;;
36105;SDS011;22159;55.736;38.048;2022-11-13T11:10:56;1.30;;;0.57;;
36105;SDS011;22159;55.736;38.048;2022-11-13T11:13:41;1.80;;;0.50;;
36105;SDS011;22159;55.736;38.048;2022-11-13T11:16:08;3.17;;;0.50;;
36105;SDS011;22159;55.736;38.048;2022-11-13T11:18:37;4.38;;;0.68;;
36105;SDS011;22159;55.736;38.048;2022-11-13T11:21:05;2.92;;;0.73;;
36105;SDS011;22159;55.736;38.048;2022-11-13T11:26:06;5.30;;;0.90;;
36105;SDS011;22159;55.736;38.048;2022-11-13T11:28:36;6.05;;;0.93;;
36105;SDS011;22159;55.736;38.048;2022-11-13T11:33:54;5.68;;;0.93;;
36105;SDS011;22159;55.736;38.048;2022-11-13T11:36:26;1.77;;;0.63;;
36105;SDS011;22159;55.736;38.048;2022-11-13T11:38:55;3.10;;;0.70;;
36105;SDS011;22159;55.736;38.048;2022-11-13T11:41:25;2.97;;;0.80;;
36105;SDS011;22159;55.736;38.048;2022-11-13T11:44:02;3.17;;;0.80;;
36105;SDS011;22159;55.736;38.048;2022-11-13T11:46:29;6.28;;;0.77;;
36105;SDS011;22159;55.736;38.048;2022-11-13T11:48:59;2.72;;;0.70;;
36105;SDS011;22159;55.736;38.048;2022-11-13T12:05:07;4.43;;;1.00;;
36105;SDS011;22159;55.736;38.048;2022-11-13T12:07:44;3.28;;;1.00;;
36105;SDS011;22159;55.736;38.048;2022-11-13T12:26:25;3.53;;;0.98;;
36105;SDS011;22159;55.736;38.048;2022-11-13T12:28:34;3.67;;;0.60;;
36105;SDS011;22159;55.736;38.048;2022-11-13T12:36:29;2.47;;;0.98;;
36105;SDS011;22159;55.736;38.048;2022-11-13T12:41:30;3.20;;;0.50;;
36105;SDS011;22159;55.736;38.048;2022-11-13T12:44:01;2.58;;;0.60;;
36105;SDS011;22159;55.736;38.048;2022-11-13T12:46:38;1.60;;;0.43;;
36105;SDS011;22159;55.736;38.048;2022-11-13T12:49:14;3.63;;;0.77;;
36105;SDS011;22159;55.736;38.048;2022-11-13T12:51:51;1.50;;;0.60;;
36105;SDS011;22159;55.736;38.048;2022-11-13T12:54:23;1.50;;;0.50;;
36105;SDS011;22159;55.736;38.048;2022-11-13T12:56:49;2.10;;;0.60;;
36105;SDS011;22159;55.736;38.048;2022-11-13T13:04:40;2.80;;;0.80;;
36105;SDS011;22159;55.736;38.048;2022-11-13T13:15:26;2.58;;;0.40;;
36105;SDS011;22159;55.736;38.048;2022-11-13T13:18:03;2.60;;;0.63;;
36105;SDS011;22159;55.736;38.048;2022-11-13T13:20:32;2.38;;;0.85;;
36105;SDS011;22159;55.736;38.048;2022-11-13T13:22:59;2.20;;;0.73;;
36105;SDS011;22159;55.736;38.048;2022-11-13T13:25:32;1.77;;;0.40;;
36105;SDS011;22159;55.736;38.048;2022-11-13T13:30:35;2.20;;;0.30;;
36105;SDS011;22159;55.736;38.048;2022-11-13T13:33:31;1.88;;;0.82;;
36105;SDS011;22159;55.736;38.048;2022-11-13T13:36:08;1.50;;;0.52;;
36105;SDS011;22159;55.736;38.048;2022-11-13T13:38:40;1.42;;;0.43;;
36105;SDS011;22159;55.736;38.048;2022-11-13T13:46:18;1.13;;;0.40;;
36105;SDS011;22159;55.736;38.048;2022-11-13T13:48:48;1.75;;;0.40;;
36105;SDS011;22159;55.736;38.048;2022-11-13T13:53:41;1.42;;;0.57;;
36105;SDS011;22159;55.736;38.048;2022-11-13T13:56:11;2.20;;;0.68;;
36105;SDS011;22159;55.736;38.048;2022-11-13T13:58:37;1.60;;;0.43;;
36105;SDS011;22159;55.736;38.048;2022-11-13T14:01:05;2.03;;;0.50;;
36105;SDS011;22159;55.736;38.048;2022-11-13T14:03:31;1.27;;;0.50;;
36105;SDS011;22159;55.736;38.048;2022-11-13T14:09:05;3.13;;;0.50;;
36105;SDS011;22159;55.736;38.048;2022-11-13T14:11:31;2.90;;;0.30;;
36105;SDS011;22159;55.736;38.048;2022-11-13T14:14:07;1.80;;;0.60;;
36105;SDS011;22159;55.736;38.048;2022-11-13T14:16:34;2.03;;;0.52;;
36105;SDS011;22159;55.736;38.048;2022-11-13T14:19:10;3.22;;;0.68;;
36105;SDS011;22159;55.736;38.048;2022-11-13T14:21:36;3.88;;;0.60;;
36105;SDS011;22159;55.736;38.048;2022-11-13T14:24:02;0.70;;;0.40;;
36105;SDS011;22159;55.736;38.048;2022-11-13T14:26:29;1.15;;;0.52;;
36105;SDS011;22159;55.736;38.048;2022-11-13T14:28:59;1.65;;;0.50;;
36105;SDS011;22159;55.736;38.048;2022-11-13T14:31:29;3.97;;;0.60;;
36105;SDS011;22159;55.736;38.048;2022-11-13T14:34:29;3.83;;;0.63;;
36105;SDS011;22159;55.736;38.048;2022-11-13T14:36:48;1.85;;;0.55;;
36105;SDS011;22159;55.736;38.048;2022-11-13T14:39:48;3.08;;;0.80;;
36105;SDS011;22159;55.736;38.048;2022-11-13T14:42:12;2.00;;;0.47;;
36105;SDS011;22159;55.736;38.048;2022-11-13T14:44:40;2.03;;;0.45;;
36105;SDS011;22159;55.736;38.048;2022-11-13T14:47:18;1.88;;;0.47;;
36105;SDS011;22159;55.736;38.048;2022-11-13T14:49:45;2.75;;;0.80;;
36105;SDS011;22159;55.736;38.048;2022-11-13T14:52:21;2.90;;;0.68;;
36105;SDS011;22159;55.736;38.048;2022-11-13T14:54:47;2.42;;;0.40;;
36105;SDS011;22159;55.736;38.048;2022-11-13T14:57:13;3.25;;;0.40;;
36105;SDS011;22159;55.736;38.048;2022-11-13T14:59:40;2.55;;;0.60;;
36105;SDS011;22159;55.736;38.048;2022-11-13T15:02:09;1.88;;;0.90;;
36105;SDS011;22159;55.736;38.048;2022-11-13T15:04:35;4.63;;;1.25;;
36105;SDS011;22159;55.736;38.048;2022-11-13T15:07:02;4.38;;;1.50;;
36105;SDS011;22159;55.736;38.048;2022-11-13T15:09:28;9.20;;;2.30;;
36105;SDS011;22159;55.736;38.048;2022-11-13T15:11:58;11.57;;;3.47;;
36105;SDS011;22159;55.736;38.048;2022-11-13T15:14:24;17.98;;;4.05;;
36105;SDS011;22159;55.736;38.048;2022-11-13T15:16:50;20.02;;;4.53;;
36105;SDS011;22159;55.736;38.048;2022-11-13T15:21:43;18.08;;;4.63;;
36105;SDS011;22159;55.736;38.048;2022-11-13T15:24:10;19.70;;;4.72;;
36105;SDS011;22159;55.736;38.048;2022-11-13T15:26:37;21.25;;;5.05;;
36105;SDS011;22159;55.736;38.048;2022-11-13T15:29:03;15.75;;;4.95;;
36105;SDS011;22159;55.736;38.048;2022-11-13T15:31:31;22.50;;;5.85;;
36105;SDS011;22159;55.736;38.048;2022-11-13T15:33:57;16.55;;;5.72;;
36105;SDS011;22159;55.736;38.048;2022-11-13T15:36:23;19.67;;;5.30;;
36105;SDS011;22159;55.736;38.048;2022-11-13T15:38:49;23.02;;;5.60;;
36105;SDS011;22159;55.736;38.048;2022-11-13T15:41:19;17.02;;;5.00;;
36105;SDS011;22159;55.736;38.048;2022-11-13T15:43:49;22.43;;;5.23;;
36105;SDS011;22159;55.736;38.048;2022-11-13T15:46:17;19.38;;;5.53;;
36105;SDS011;22159;55.736;38.048;2022-11-13T15:48:44;18.95;;;4.78;;
36105;SDS011;22159;55.736;38.048;2022-11-13T15:53:43;20.83;;;5.20;;
36105;SDS011;22159;55.736;38.048;2022-11-13T15:56:12;12.88;;;4.55;;
36105;SDS011;22159;55.736;38.048;2022-11-13T15:58:38;15.75;;;4.65;;
36105;SDS011;22159;55.736;38.048;2022-11-13T16:01:04;19.98;;;4.97;;
36105;SDS011;22159;55.736;38.048;2022-11-13T16:03:30;16.52;;;4.80;;
36105;SDS011;22159;55.736;38.048;2022-11-13T16:05:58;16.65;;;4.78;;
36105;SDS011;22159;55.736;38.048;2022-11-13T16:08:24;17.55;;;5.10;;
36105;SDS011;22159;55.736;38.048;2022-11-13T16:10:51;14.75;;;4.18;;
36105;SDS011;22159;55.736;38.048;2022-11-13T16:13:18;18.02;;;5.03;;
36105;SDS011;22159;55.736;38.048;2022-11-13T16:15:44;14.88;;;4.65;;
36105;SDS011;22159;55.736;38.048;2022-11-13T16:18:23;20.15;;;5.40;;